Time;durP1;ratioP1;P1;durP2;ratioP2;P2;SDS_P1;SDS_P2;PMS_P1;PMS_P2;Temp;Humidity;BMP_temperature;BMP_pressure;BME280_temperature;BME280_humidity;BME280_pressure;Samples;Min_cycle;Max_cycle;Signal;HPM_P1;HPM_P2
2022/04/07 00:02:06;;;;;;;6.80;4.15;;;;;;;12.50;53.80;98464.34;4917783;28;97043;-78
2022/04/07 00:04:32;;;;;;;7.75;4.10;;;;;;;12.56;53.83;98468.34;4918544;28;97150;-78
2022/04/07 00:06:57;;;;;;;8.57;3.50;;;;;;;12.60;53.76;98469.84;4917976;28;100921;-78
2022/04/07 00:09:23;;;;;;;6.35;3.75;;;;;;;12.54;54.46;98468.47;4934563;28;97901;-78
2022/04/07 00:11:49;;;;;;;10.38;4.20;;;;;;;12.51;53.71;98454.66;4918087;28;97240;-78
2022/04/07 00:14:14;;;;;;;6.22;3.75;;;;;;;12.54;53.98;98463.22;4917037;28;97078;-78
2022/04/07 00:16:40;;;;;;;6.88;4.10;;;;;;;12.49;54.28;98469.75;4901902;28;101096;-78
2022/04/07 00:19:05;;;;;;;5.43;3.47;;;;;;;12.45;54.19;98466.50;4900411;28;101939;-77
2022/04/07 00:21:40;;;;;;;6.80;3.92;;;;;;;12.50;54.00;98466.16;4933946;28;97183;-78
2022/04/07 00:24:07;;;;;;;5.38;3.42;;;;;;;12.41;54.49;98468.50;4920411;28;96725;-78
2022/04/07 00:26:34;;;;;;;6.55;3.72;;;;;;;12.52;54.52;98451.94;4934189;28;97788;-78
2022/04/07 00:29:00;;;;;;;8.43;3.85;;;;;;;12.49;54.19;98453.97;4919799;28;97873;-78
2022/04/07 00:31:26;;;;;;;5.93;3.97;;;;;;;12.36;54.45;98448.72;4916046;28;96772;-78
2022/04/07 00:33:51;;;;;;;6.43;3.70;;;;;;;12.39;54.54;98445.84;4922326;28;96897;-78
2022/04/07 00:36:17;;;;;;;4.55;3.53;;;;;;;12.33;54.36;98444.50;4922974;28;97548;-77
2022/04/07 00:38:43;;;;;;;6.55;3.30;;;;;;;12.37;54.24;98440.72;4917250;28;100919;-78
2022/04/07 00:41:08;;;;;;;7.15;3.75;;;;;;;12.42;54.30;98443.88;4916801;28;96807;-78
2022/04/07 00:43:36;;;;;;;7.50;4.40;;;;;;;12.38;54.72;98439.75;4917339;28;97310;-77
2022/04/07 00:46:03;;;;;;;6.35;3.50;;;;;;;12.30;54.63;98418.41;4932676;28;97583;-78
2022/04/07 00:48:29;;;;;;;7.05;4.25;;;;;;;12.39;54.42;98438.84;4909847;28;101483;-78
2022/04/07 00:50:55;;;;;;;5.55;3.13;;;;;;;12.41;54.28;98436.06;4917363;28;97192;-77
2022/04/07 00:53:20;;;;;;;5.72;3.30;;;;;;;12.38;54.72;98439.75;4917102;28;96818;-77
2022/04/07 00:55:47;;;;;;;5.15;3.63;;;;;;;12.35;54.26;98428.63;4916648;28;101833;-77
2022/04/07 00:58:13;;;;;;;7.70;3.40;;;;;;;12.23;54.74;98428.53;4915228;28;97495;-77
2022/04/07 01:00:38;;;;;;;4.63;3.00;;;;;;;12.24;54.61;98424.13;4917302;28;97104;-78
2022/04/07 01:03:12;;;;;;;6.10;3.45;;;;;;;12.23;54.83;98419.81;5073817;27;96741;-80
2022/04/07 01:05:38;;;;;;;5.38;3.53;;;;;;;12.26;54.79;98426.66;5037543;27;97163;-80
2022/04/07 01:08:05;;;;;;;4.95;3.42;;;;;;;12.26;54.82;98431.91;5050191;27;97430;-80
2022/04/07 01:10:32;;;;;;;7.05;4.10;;;;;;;12.24;54.67;98426.75;5032927;27;101748;-80
2022/04/07 01:12:57;;;;;;;6.63;3.60;;;;;;;12.18;54.82;98417.50;5068177;27;97407;-81
2022/04/07 01:15:23;;;;;;;6.03;3.83;;;;;;;12.20;54.65;98422.66;5036425;27;97108;-80
2022/04/07 01:17:48;;;;;;;6.32;3.92;;;;;;;12.08;54.34;98413.00;5052317;27;101517;-80
2022/04/07 01:20:14;;;;;;;6.53;3.38;;;;;;;12.10;54.59;98419.84;5070745;27;100831;-80
2022/04/07 01:22:41;;;;;;;6.25;3.50;;;;;;;12.00;54.94;98400.38;5070977;27;97537;-80
2022/04/07 01:25:07;;;;;;;5.53;3.60;;;;;;;12.07;55.17;98427.97;5035994;27;97402;-80
2022/04/07 01:27:34;;;;;;;8.35;3.85;;;;;;;11.98;55.26;98403.16;5054667;27;97871;-80
2022/04/07 01:30:08;;;;;;;5.28;3.67;;;;;;;12.06;55.02;98425.41;5046225;27;101176;-79
2022/04/07 01:32:41;;;;;;;4.40;3.33;;;;;;;11.90;55.28;98399.38;5016768;27;96717;-80
2022/04/07 01:35:07;;;;;;;4.55;3.00;;;;;;;11.93;55.50;98409.66;5037221;27;97364;-80
2022/04/07 01:37:34;;;;;;;6.82;3.35;;;;;;;11.95;55.38;98415.63;5054718;27;97974;-80
2022/04/07 01:40:00;;;;;;;4.53;2.53;;;;;;;11.85;55.69;98401.44;5070354;27;97326;-80
2022/04/07 01:42:26;;;;;;;4.80;2.97;;;;;;;11.93;55.37;98415.75;5071034;27;96624;-80
2022/04/07 01:44:53;;;;;;;7.40;3.60;;;;;;;11.84;55.28;98408.50;5053869;27;96801;-80
2022/04/07 01:47:20;;;;;;;3.97;3.15;;;;;;;11.90;55.16;98404.63;5065739;27;98038;-80
2022/04/07 01:49:52;;;;;;;5.60;3.42;;;;;;;11.87;55.43;98399.56;5042497;27;98190;-80
2022/04/07 01:52:17;;;;;;;5.72;3.38;;;;;;;11.80;55.60;98404.38;5036853;27;96980;-80
2022/04/07 01:54:43;;;;;;;5.03;3.22;;;;;;;11.64;55.50;98380.13;5053492;27;96974;-80
2022/04/07 01:57:10;;;;;;;4.88;2.80;;;;;;;11.81;55.30;98408.72;5035395;27;101209;-80
2022/04/07 01:59:36;;;;;;;5.53;2.72;;;;;;;11.78;55.44;98401.03;5049438;27;101667;-80
2022/04/07 02:02:01;;;;;;;3.97;2.85;;;;;;;11.70;55.60;98398.91;5046383;27;97021;-79
2022/04/07 02:04:27;;;;;;;6.47;2.95;;;;;;;11.67;55.74;98385.16;5030518;27;97124;-80
2022/04/07 02:06:52;;;;;;;4.68;3.47;;;;;;;11.69;55.46;98393.75;5052983;27;97346;-79
2022/04/07 02:09:18;;;;;;;6.53;3.30;;;;;;;11.74;55.73;98397.75;5049785;27;97445;-80
2022/04/07 02:11:44;;;;;;;4.60;2.78;;;;;;;11.74;55.74;98394.28;5062431;27;96867;-80
2022/04/07 02:14:10;;;;;;;6.80;3.20;;;;;;;11.79;55.59;98400.91;5024500;27;97354;-80
2022/04/07 02:16:36;;;;;;;4.45;2.80;;;;;;;11.74;55.87;98389.03;5022747;27;101435;-80
2022/04/07 02:19:01;;;;;;;6.55;2.80;;;;;;;11.81;55.37;98387.69;5021603;27;100905;-80
2022/04/07 02:21:27;;;;;;;5.20;2.67;;;;;;;11.68;55.79;98381.56;5057131;27;96785;-80
2022/04/07 02:23:53;;;;;;;4.43;2.70;;;;;;;11.65;56.31;98387.88;5055911;27;97235;-79
2022/04/07 02:26:19;;;;;;;4.57;2.60;;;;;;;11.71;56.39;98384.81;5022751;27;101558;-79
2022/04/07 02:28:45;;;;;;;4.13;2.72;;;;;;;11.48;56.24;98357.50;5021850;27;101196;-80
2022/04/07 02:31:13;;;;;;;4.60;2.22;;;;;;;11.68;55.99;98390.28;5022705;27;96859;-80
2022/04/07 02:33:39;;;;;;;4.75;2.58;;;;;;;11.57;56.17;98391.03;5039653;27;96841;-79
2022/04/07 02:36:06;;;;;;;6.13;2.22;;;;;;;11.53;56.21;98380.84;5022029;27;100869;-80
2022/04/07 02:38:33;;;;;;;4.90;2.60;;;;;;;11.49;56.41;98374.97;5021691;27;101649;-81
2022/04/07 02:40:58;;;;;;;4.80;3.00;;;;;;;11.60;56.31;98384.72;5015801;27;97240;-80
2022/04/07 02:43:24;;;;;;;6.30;2.78;;;;;;;11.57;56.34;98382.31;5019020;28;96955;-80
2022/04/07 02:45:49;;;;;;;7.93;2.88;;;;;;;11.68;56.19;98381.56;5035271;28;102042;-80
2022/04/07 02:48:16;;;;;;;8.80;3.08;;;;;;;11.62;55.90;98366.22;5035209;28;97789;-80
2022/04/07 02:50:43;;;;;;;7.15;3.03;;;;;;;11.84;55.67;98382.19;5055255;27;97154;-80
2022/04/07 02:53:09;;;;;;;7.32;3.20;;;;;;;11.86;55.45;98388.19;5019023;27;96919;-80
2022/04/07 02:55:35;;;;;;;9.75;3.08;;;;;;;11.91;55.58;98383.47;5038204;27;97469;-80
2022/04/07 02:58:01;;;;;;;14.73;3.85;;;;;;;11.97;55.69;98393.56;5055316;27;97331;-80
2022/04/07 03:00:26;;;;;;;8.50;2.85;;;;;;;11.88;55.54;98373.16;5039100;27;97031;-80
2022/04/07 03:02:52;;;;;;;8.88;3.60;;;;;;;11.79;55.50;98358.84;5039110;27;97030;-80
2022/04/07 03:05:18;;;;;;;6.68;3.67;;;;;;;11.98;55.61;98386.50;5055285;27;98261;-80
2022/04/07 03:07:43;;;;;;;8.10;3.20;;;;;;;11.91;55.42;98374.75;5021677;27;101278;-80
2022/04/07 03:10:09;;;;;;;10.68;2.90;;;;;;;11.87;55.75;98384.66;5038083;27;97266;-79
2022/04/07 03:12:35;;;;;;;6.97;2.50;;;;;;;11.79;55.30;98365.91;5022214;27;96937;-80
2022/04/07 03:15:01;;;;;;;8.27;2.80;;;;;;;11.78;55.62;98361.59;5017904;27;99608;-79
2022/04/07 03:17:27;;;;;;;4.55;2.70;;;;;;;11.65;55.89;98360.75;5055076;27;97407;-79
2022/04/07 03:19:53;;;;;;;5.88;3.03;;;;;;;11.62;56.25;98360.97;5055841;27;97364;-79
2022/04/07 03:22:19;;;;;;;6.97;2.72;;;;;;;11.56;56.25;98370.13;5021785;27;96906;-80
2022/04/07 03:24:45;;;;;;;5.50;2.72;;;;;;;11.47;56.25;98361.09;5020008;27;101381;-79
2022/04/07 03:27:11;;;;;;;5.63;3.53;;;;;;;11.47;56.52;98371.59;5037653;27;101271;-79
2022/04/07 03:29:37;;;;;;;4.32;3.10;;;;;;;11.22;56.75;98361.91;5038309;27;96914;-79
2022/04/07 03:32:04;;;;;;;7.30;3.20;;;;;;;11.24;57.00;98365.28;5021423;27;97355;-79
2022/04/07 03:34:30;;;;;;;7.53;2.88;;;;;;;11.13;57.21;98359.06;5020983;27;102050;-79
2022/04/07 03:36:55;;;;;;;5.32;3.03;;;;;;;11.14;57.26;98360.75;5054987;27;97826;-79
2022/04/07 03:39:21;;;;;;;5.72;3.40;;;;;;;11.28;57.11;98363.28;5021616;27;96815;-79
2022/04/07 03:41:47;;;;;;;5.82;2.95;;;;;;;11.20;57.35;98357.69;5038684;27;97072;-79
2022/04/07 03:44:12;;;;;;;5.65;2.90;;;;;;;11.23;57.08;98350.47;5020461;27;101400;-79
2022/04/07 03:46:38;;;;;;;7.72;3.05;;;;;;;11.20;56.93;98353.31;5055084;27;97897;-79
2022/04/07 03:49:03;;;;;;;5.18;3.00;;;;;;;11.24;57.09;98351.31;5060300;27;97298;-79
2022/04/07 03:51:29;;;;;;;6.53;3.25;;;;;;;11.26;57.06;98357.31;5046308;27;96958;-79
2022/04/07 03:53:54;;;;;;;6.22;3.30;;;;;;;11.38;56.80;98359.09;5019629;27;101424;-79
2022/04/07 03:56:21;;;;;;;5.43;3.38;;;;;;;11.27;57.10;98354.56;5020696;27;101994;-79
2022/04/07 03:58:46;;;;;;;8.40;3.08;;;;;;;11.20;57.47;98352.44;5038467;27;97105;-80
2022/04/07 04:01:13;;;;;;;4.05;2.90;;;;;;;11.24;56.77;98344.25;5056405;27;97162;-79
2022/04/07 04:03:38;;;;;;;7.47;2.80;;;;;;;11.34;56.82;98357.59;5020908;27;101240;-80
2022/04/07 04:06:04;;;;;;;4.80;3.53;;;;;;;11.26;56.73;98355.53;5021017;27;101153;-80
2022/04/07 04:08:30;;;;;;;5.55;2.80;;;;;;;11.32;56.67;98356.88;5023299;28;96870;-80
2022/04/07 04:10:55;;;;;;;5.90;3.60;;;;;;;11.29;56.57;98349.22;5034656;28;97218;-79
2022/04/07 04:13:21;;;;;;;5.68;3.28;;;;;;;11.24;57.02;98354.78;5000200;28;101675;-79
2022/04/07 04:15:46;;;;;;;6.40;3.17;;;;;;;11.07;56.92;98326.19;5001078;28;101009;-80
2022/04/07 04:18:12;;;;;;;8.75;3.55;;;;;;;11.16;56.87;98357.06;5017149;28;97058;-80
2022/04/07 04:20:38;;;;;;;6.05;3.35;;;;;;;11.08;57.15;98354.97;5018118;28;97172;-80
2022/04/07 04:23:04;;;;;;;5.45;3.20;;;;;;;11.06;57.25;98353.41;5017339;27;101283;-79
2022/04/07 04:25:30;;;;;;;5.82;3.45;;;;;;;11.05;56.98;98349.94;5035675;27;101017;-80
2022/04/07 04:27:55;;;;;;;9.85;3.45;;;;;;;11.04;57.39;98352.66;5021587;27;96610;-80
2022/04/07 04:30:21;;;;;;;6.55;2.97;;;;;;;10.86;57.61;98352.94;5054440;27;96883;-80
2022/04/07 04:32:47;;;;;;;5.70;3.33;;;;;;;10.81;57.97;98343.69;5037832;27;100936;-80
2022/04/07 04:35:12;;;;;;;8.45;3.35;;;;;;;10.83;57.77;98358.38;5036422;27;101062;-80
2022/04/07 04:37:39;;;;;;;5.20;3.28;;;;;;;10.80;58.26;98342.00;5021165;27;96700;-80
2022/04/07 04:40:05;;;;;;;7.45;3.33;;;;;;;10.89;57.56;98341.41;5053727;27;96823;-79
2022/04/07 04:42:30;;;;;;;7.38;3.10;;;;;;;10.81;58.17;98346.31;5018014;27;101797;-80
2022/04/07 04:44:56;;;;;;;7.65;3.10;;;;;;;10.70;58.28;98319.94;5019236;27;101075;-80
2022/04/07 04:47:21;;;;;;;7.85;3.28;;;;;;;10.82;58.10;98345.34;5053799;27;96785;-79
2022/04/07 04:49:47;;;;;;;6.25;3.20;;;;;;;10.82;57.98;98330.47;5055636;27;96757;-80
2022/04/07 04:52:13;;;;;;;4.65;3.08;;;;;;;10.90;57.55;98326.47;5020669;27;101505;-83
2022/04/07 04:54:39;;;;;;;10.63;3.40;;;;;;;10.71;57.46;98308.50;5034634;28;101557;-82
2022/04/07 04:57:06;;;;;;;9.95;3.47;;;;;;;10.99;57.62;98331.94;5029270;27;96959;-83
2022/04/07 04:59:32;;;;;;;9.07;3.28;;;;;;;11.04;57.13;98335.09;5034647;28;97278;-82
2022/04/07 05:01:57;;;;;;;6.63;3.50;;;;;;;10.90;57.45;98318.59;5036861;27;102073;-84
2022/04/07 05:04:23;;;;;;;5.93;3.40;;;;;;;10.99;57.37;98320.59;5034750;27;101083;-81
2022/04/07 05:06:49;;;;;;;6.55;3.20;;;;;;;11.09;57.00;98335.66;5034617;27;96834;-84
2022/04/07 05:09:14;;;;;;;6.03;3.05;;;;;;;11.10;57.08;98328.59;5034190;27;97093;-83
2022/04/07 05:11:39;;;;;;;5.65;3.35;;;;;;;11.08;57.26;98333.97;5030569;28;101085;-81
2022/04/07 05:14:05;;;;;;;10.13;4.28;;;;;;;11.01;56.87;98316.09;5017040;28;97902;-82
2022/04/07 05:16:31;;;;;;;7.97;3.20;;;;;;;11.08;57.21;98328.72;5035146;27;97058;-83
2022/04/07 05:18:56;;;;;;;4.97;2.92;;;;;;;11.01;56.88;98323.97;5020466;27;97029;-80
2022/04/07 05:21:22;;;;;;;6.07;3.10;;;;;;;10.94;57.16;98317.44;5017954;27;101339;-79
2022/04/07 05:23:47;;;;;;;5.15;2.90;;;;;;;10.96;57.14;98320.81;5028830;28;97348;-83
2022/04/07 05:26:13;;;;;;;6.25;3.28;;;;;;;11.02;57.70;98317.78;5037039;27;97000;-83
2022/04/07 05:28:39;;;;;;;5.38;3.30;;;;;;;10.84;57.60;98291.81;5036111;27;97078;-81
2022/04/07 05:31:05;;;;;;;7.15;3.35;;;;;;;10.91;57.83;98315.03;5034842;27;101096;-82
2022/04/07 05:33:31;;;;;;;7.65;3.28;;;;;;;10.85;57.87;98305.81;5036107;27;97694;-81
2022/04/07 05:35:57;;;;;;;6.97;3.28;;;;;;;10.81;57.97;98315.66;5007544;28;97203;-83
2022/04/07 05:38:23;;;;;;;5.43;3.10;;;;;;;10.61;58.32;98279.41;5052937;27;97279;-79
2022/04/07 05:40:48;;;;;;;6.80;2.83;;;;;;;10.77;58.31;98305.47;5053277;27;97998;-85
2022/04/07 05:43:14;;;;;;;11.32;3.63;;;;;;;10.78;58.36;98305.34;5019707;27;101642;-78
2022/04/07 05:45:42;;;;;;;5.57;3.03;;;;;;;10.63;58.53;98286.22;5016584;27;96892;-76
2022/04/07 05:48:08;;;;;;;9.07;3.38;;;;;;;10.84;58.25;98309.34;5036820;27;96863;-78
2022/04/07 05:50:34;;;;;;;10.05;3.40;;;;;;;10.94;58.36;98307.81;5066256;27;98483;-77
2022/04/07 05:52:59;;;;;;;6.43;2.80;;;;;;;10.97;58.03;98304.97;5038468;27;97346;-77
2022/04/07 05:55:25;;;;;;;14.48;3.72;;;;;;;10.85;58.26;98277.78;5038763;27;97208;-77
2022/04/07 05:57:50;;;;;;;5.28;3.13;;;;;;;11.10;57.89;98305.81;5039914;27;96954;-77
2022/04/07 06:00:19;;;;;;;6.18;3.08;;;;;;;11.12;57.85;98297.84;5056180;27;97447;-77
2022/04/07 06:02:46;;;;;;;4.75;2.83;;;;;;;11.19;57.79;98298.25;5039820;27;100881;-76
2022/04/07 06:05:14;;;;;;;5.35;3.13;;;;;;;11.19;57.57;98293.84;5022332;27;97276;-77
2022/04/07 06:07:40;;;;;;;5.90;2.70;;;;;;;11.36;57.60;98297.94;5037980;27;96899;-77
2022/04/07 06:10:06;;;;;;;4.45;2.85;;;;;;;11.34;57.47;98278.81;5031022;28;102948;-82
2022/04/07 06:12:32;;;;;;;9.82;3.30;;;;;;;11.45;57.52;98299.09;5035871;27;100967;-77
2022/04/07 06:14:57;;;;;;;7.53;3.10;;;;;;;11.49;57.26;98293.53;5027403;27;97395;-77
2022/04/07 06:17:41;;;;;;;8.88;3.17;;;;;;;11.54;57.01;98288.75;5022398;27;97198;-78
2022/04/07 06:20:07;;;;;;;6.53;2.78;;;;;;;11.69;56.79;98296.50;5038926;27;101222;-81
2022/04/07 06:22:34;;;;;;;8.88;2.78;;;;;;;11.74;56.35;98297.88;5039008;27;101778;-76
2022/04/07 06:25:00;;;;;;;7.63;2.63;;;;;;;11.92;56.83;98302.81;5019486;27;96692;-76
2022/04/07 06:27:48;;;;;;;6.15;2.60;;;;;;;11.94;56.48;98283.34;5038562;27;96913;-78
2022/04/07 06:30:16;;;;;;;5.80;3.22;;;;;;;11.99;56.15;98259.34;5020830;27;101702;-77
2022/04/07 06:32:42;;;;;;;6.90;3.20;;;;;;;12.32;56.21;98273.63;5038597;27;101253;-77
2022/04/07 06:35:09;;;;;;;4.38;2.83;;;;;;;12.52;55.15;98251.09;5021150;27;96719;-78
2022/04/07 06:37:58;;;;;;;4.45;2.55;;;;;;;12.61;55.67;98274.94;5027682;27;96831;-76
2022/04/07 06:40:28;;;;;;;5.13;2.75;;;;;;;13.03;55.56;98274.44;5032996;27;98535;-77
2022/04/07 06:42:55;;;;;;;7.82;3.05;;;;;;;13.14;54.65;98272.66;5039776;27;97976;-76
2022/04/07 06:45:21;;;;;;;8.40;3.30;;;;;;;13.51;54.19;98282.19;5047893;27;96867;-76
2022/04/07 06:47:47;;;;;;;5.47;3.30;;;;;;;13.34;54.37;98279.03;5010703;27;96867;-76
2022/04/07 06:50:15;;;;;;;12.90;3.35;;;;;;;13.42;54.06;98280.25;5035907;27;101078;-78
2022/04/07 06:52:42;;;;;;;8.10;2.47;;;;;;;13.67;53.36;98272.13;5005846;27;100855;-84
2022/04/07 06:55:08;;;;;;;6.47;2.67;;;;;;;14.23;52.83;98276.44;5050968;27;97172;-82
2022/04/07 06:57:50;;;;;;;3.65;2.00;;;;;;;14.48;50.74;98275.25;5039323;27;96734;-82
2022/04/07 07:00:17;;;;;;;5.38;1.88;;;;;;;14.82;50.59;98265.41;5037581;27;99968;-82
2022/04/07 07:02:47;;;;;;;6.38;2.28;;;;;;;15.34;49.07;98252.19;5039311;27;101830;-77
2022/04/07 07:05:12;;;;;;;6.20;2.10;;;;;;;16.39;47.38;98270.31;5037633;27;96859;-76
2022/04/07 07:07:38;;;;;;;5.75;2.15;;;;;;;16.64;46.58;98250.38;5053668;27;97467;-77
2022/04/07 07:10:04;;;;;;;9.38;2.20;;;;;;;17.23;45.10;98241.38;5052497;27;97431;-76
2022/04/07 07:12:30;;;;;;;6.90;2.03;;;;;;;17.70;44.99;98233.34;5035132;27;101303;-77
2022/04/07 07:14:55;;;;;;;4.43;1.60;;;;;;;18.01;43.93;98241.03;5036702;27;97752;-77
2022/04/07 07:17:21;;;;;;;4.93;1.70;;;;;;;18.17;43.52;98219.94;5035294;27;97072;-76
2022/04/07 07:19:46;;;;;;;3.20;1.63;;;;;;;18.56;43.25;98235.56;5034490;27;102294;-77
2022/04/07 07:22:12;;;;;;;3.70;1.45;;;;;;;18.22;43.03;98233.59;5033139;27;101247;-78
2022/04/07 07:24:37;;;;;;;3.60;2.13;;;;;;;17.66;44.08;98237.28;5033690;27;97908;-78
2022/04/07 07:27:03;;;;;;;5.85;2.63;;;;;;;17.16;44.92;98237.59;5038210;27;97134;-80
2022/04/07 07:29:29;;;;;;;6.95;2.20;;;;;;;16.75;45.02;98235.19;5018041;28;101703;-79
2022/04/07 07:31:55;;;;;;;5.55;1.83;;;;;;;16.39;45.66;98207.59;5035237;28;101126;-79
2022/04/07 07:34:20;;;;;;;4.78;2.30;;;;;;;16.59;46.00;98212.88;5021983;28;96597;-75
2022/04/07 07:36:46;;;;;;;5.32;1.90;;;;;;;16.85;45.30;98208.69;5002762;28;97243;-78
2022/04/07 07:39:12;;;;;;;3.80;2.00;;;;;;;16.87;46.01;98205.88;5039374;27;97754;-84
2022/04/07 07:41:38;;;;;;;3.83;1.70;;;;;;;17.17;44.73;98208.31;5036416;27;101077;-79
2022/04/07 07:44:05;;;;;;;3.83;2.08;;;;;;;17.42;44.99;98198.88;5044254;27;96811;-78
2022/04/07 07:46:30;;;;;;;3.33;1.63;;;;;;;17.75;44.27;98171.88;5037334;27;97253;-79
2022/04/07 07:48:56;;;;;;;3.25;1.58;;;;;;;18.81;42.39;98180.81;5040608;27;101415;-80
2022/04/07 07:51:24;;;;;;;4.05;1.90;;;;;;;18.67;42.54;98176.84;5031336;27;97603;-81
2022/04/07 07:53:50;;;;;;;8.45;2.10;;;;;;;18.59;42.51;98168.00;5039304;27;97271;-79
2022/04/07 07:56:16;;;;;;;7.95;2.03;;;;;;;19.13;41.57;98192.63;5052591;27;97631;-80
2022/04/07 07:58:41;;;;;;;5.03;1.80;;;;;;;18.92;41.97;98175.22;5021784;28;98023;-80
2022/04/07 08:01:07;;;;;;;4.20;1.35;;;;;;;18.26;42.36;98146.50;5053348;27;98482;-80
2022/04/07 08:03:32;;;;;;;2.35;1.58;;;;;;;18.59;42.39;98194.56;5039100;27;96766;-81
2022/04/07 08:05:59;;;;;;;4.03;1.88;;;;;;;19.15;41.27;98186.16;5037296;27;97431;-80
2022/04/07 08:08:25;;;;;;;3.25;1.20;;;;;;;19.78;40.39;98187.63;5020566;27;101375;-80
2022/04/07 08:10:50;;;;;;;3.33;1.55;;;;;;;19.71;39.71;98191.91;5035012;27;100296;-81
2022/04/07 08:13:16;;;;;;;3.00;1.40;;;;;;;19.98;39.81;98177.50;5022500;27;97336;-85
2022/04/07 08:15:42;;;;;;;6.70;1.60;;;;;;;20.54;39.49;98172.41;5035251;27;96825;-80
2022/04/07 08:18:08;;;;;;;4.47;2.22;;;;;;;21.01;38.48;98169.00;5020767;27;100685;-80
2022/04/07 08:20:34;;;;;;;3.30;2.47;;;;;;;20.98;38.13;98172.84;5019952;27;101711;-81
2022/04/07 08:22:59;;;;;;;4.78;2.42;;;;;;;21.08;38.17;98175.31;5037868;27;96792;-81
2022/04/07 08:25:25;;;;;;;4.75;1.65;;;;;;;20.67;38.00;98163.91;5036056;27;96996;-82
2022/04/07 08:27:50;;;;;;;2.95;1.50;;;;;;;21.08;38.22;98163.81;5018541;27;101249;-80
2022/04/07 08:30:16;;;;;;;2.95;1.63;;;;;;;21.54;37.52;98156.00;5018303;27;101705;-85
2022/04/07 08:32:42;;;;;;;6.00;2.20;;;;;;;21.57;37.34;98155.66;5018569;28;96805;-82
2022/04/07 08:35:10;;;;;;;5.65;1.50;;;;;;;21.43;36.89;98143.84;5035807;27;97166;-81
2022/04/07 08:37:37;;;;;;;7.18;1.52;;;;;;;21.53;36.45;98146.34;5032669;27;100961;-80
2022/04/07 08:40:06;;;;;;;2.28;1.35;;;;;;;21.63;36.30;98152.28;5026672;27;101302;-80
2022/04/07 08:42:33;;;;;;;2.85;1.48;;;;;;;21.49;35.95;98148.50;5031653;28;97275;-81
2022/04/07 08:44:59;;;;;;;7.28;1.50;;;;;;;21.08;35.87;98153.97;5027191;27;96838;-81
2022/04/07 08:47:24;;;;;;;4.07;1.58;;;;;;;20.88;37.86;98139.34;5028917;27;101236;-79
2022/04/07 08:49:50;;;;;;;4.78;1.52;;;;;;;21.20;38.29;98141.09;5037399;27;97514;-80
2022/04/07 08:52:16;;;;;;;4.97;1.40;;;;;;;21.00;38.09;98160.19;5037823;27;97035;-80
2022/04/07 08:54:45;;;;;;;3.15;1.40;;;;;;;21.28;37.85;98124.22;5040374;27;97194;-78
2022/04/07 08:57:10;;;;;;;7.03;1.58;;;;;;;21.61;36.18;98136.44;5015259;27;101507;-80
2022/04/07 08:59:36;;;;;;;2.10;1.42;;;;;;;21.23;36.18;98124.72;5034574;27;99125;-80
2022/04/07 09:02:04;;;;;;;3.30;1.40;;;;;;;21.64;36.18;98124.56;5034438;27;96937;-79
2022/04/07 09:04:37;;;;;;;3.53;1.55;;;;;;;21.95;35.34;98132.56;5017573;28;97182;-83
2022/04/07 09:07:03;;;;;;;2.97;1.20;;;;;;;22.09;35.41;98136.28;5038387;27;98029;-81
2022/04/07 09:09:31;;;;;;;3.55;1.25;;;;;;;22.71;34.61;98117.38;5020296;27;101400;-81
2022/04/07 09:11:57;;;;;;;4.13;1.45;;;;;;;22.85;33.63;98121.09;5049837;27;96790;-81
2022/04/07 09:14:23;;;;;;;2.75;1.27;;;;;;;22.95;33.39;98107.47;5029203;27;97002;-80
2022/04/07 09:16:56;;;;;;;2.33;1.33;;;;;;;23.49;32.50;98118.66;5031074;27;101460;-85
2022/04/07 09:19:22;;;;;;;7.00;1.48;;;;;;;24.06;32.07;98117.06;5037091;27;102511;-80
2022/04/07 09:21:48;;;;;;;3.20;1.60;;;;;;;24.53;31.65;98091.50;5020337;27;97056;-80
2022/04/07 09:24:15;;;;;;;3.75;1.45;;;;;;;25.05;30.67;98092.03;5037483;27;97059;-83
2022/04/07 09:26:43;;;;;;;1.65;1.17;;;;;;;25.41;30.50;98109.75;5039619;27;98461;-82
2022/04/07 09:29:14;;;;;;;2.15;1.40;;;;;;;25.88;30.16;98098.13;5014899;27;100060;-80
2022/04/07 09:31:49;;;;;;;2.33;1.50;;;;;;;24.80;30.54;98076.38;5013588;28;96895;-81
2022/04/07 09:34:15;;;;;;;2.65;1.25;;;;;;;23.48;32.08;98076.03;5032823;27;97036;-82
2022/04/07 09:36:41;;;;;;;1.90;1.50;;;;;;;23.36;32.22;98094.44;5052648;27;97521;-80
2022/04/07 09:39:06;;;;;;;3.85;1.33;;;;;;;22.57;32.52;98081.63;5044104;27;98061;-83
2022/04/07 09:41:32;;;;;;;2.30;1.40;;;;;;;22.33;32.72;98084.53;5019752;27;96709;-81
2022/04/07 09:43:59;;;;;;;5.65;1.60;;;;;;;21.89;33.29;98066.50;5031634;27;96857;-81
2022/04/07 09:46:34;;;;;;;0.93;0.90;;;;;;;21.82;33.52;98070.91;5036106;27;98676;-82
2022/04/07 09:49:03;;;;;;;3.25;2.00;;;;;;;21.92;33.55;98064.28;5040613;27;98385;-81
2022/04/07 09:51:30;;;;;;;3.40;1.35;;;;;;;21.62;33.88;98067.88;5057532;27;96718;-81
2022/04/07 09:53:57;;;;;;;2.45;1.00;;;;;;;21.16;34.56;98049.91;5058040;27;97042;-86
2022/04/07 09:56:27;;;;;;;2.97;1.67;;;;;;;20.96;34.84;98051.34;5023674;27;101828;-89
2022/04/07 09:58:54;;;;;;;1.35;1.10;;;;;;;20.81;35.54;98035.25;5040045;27;100280;-79
2022/04/07 10:01:19;;;;;;;2.10;1.30;;;;;;;20.95;35.19;98047.03;5032330;28;97715;-81
2022/04/07 10:03:47;;;;;;;1.70;1.10;;;;;;;20.62;35.19;98057.78;5012689;28;96779;-82
2022/04/07 10:06:14;;;;;;;2.42;1.10;;;;;;;20.56;35.51;98035.31;5017363;28;101720;-82
2022/04/07 10:08:41;;;;;;;2.65;1.15;;;;;;;21.34;34.15;98040.81;5025979;27;101204;-81
2022/04/07 10:11:08;;;;;;;2.35;1.30;;;;;;;21.47;34.03;98017.09;5028633;28;96629;-83
2022/04/07 10:13:36;;;;;;;2.40;0.80;;;;;;;21.18;34.45;98009.75;5018532;28;96872;-88
2022/04/07 10:16:03;;;;;;;3.17;1.10;;;;;;;20.77;35.17;98015.28;4985191;28;101087;-90
2022/04/07 10:18:36;;;;;;;2.30;1.30;;;;;;;20.63;35.73;98011.47;5024465;28;97929;-87
2022/04/07 10:21:03;;;;;;;2.45;1.10;;;;;;;20.74;35.90;98005.78;5020449;28;96660;-88
2022/04/07 10:24:06;;;;;;;6.90;1.00;;;;;;;20.92;35.68;98013.53;5004221;28;96635;-88
2022/04/07 10:26:33;;;;;;;1.98;1.23;;;;;;;20.58;35.97;97998.66;5017567;28;102170;-85
2022/04/07 10:28:58;;;;;;;4.72;1.17;;;;;;;20.42;36.18;97987.19;5020449;28;100250;-84
2022/04/07 10:31:25;;;;;;;5.65;1.20;;;;;;;20.25;36.68;97981.94;5037266;27;97284;-86
2022/04/07 10:33:50;;;;;;;2.28;1.40;;;;;;;20.29;36.27;97988.56;5027534;28;97100;-87
2022/04/07 10:36:18;;;;;;;2.10;0.95;;;;;;;20.31;37.03;97978.56;5004198;28;100518;-88
2022/04/07 10:38:51;;;;;;;1.45;1.00;;;;;;;20.48;36.75;97959.88;5021648;28;97698;-84
2022/04/07 10:41:35;;;;;;;1.40;0.80;;;;;;;20.27;36.47;97963.09;5034517;28;96646;-83
2022/04/07 10:44:18;;;;;;;4.40;1.15;;;;;;;20.00;36.94;97961.66;5038748;27;97221;-83
2022/04/07 10:46:43;;;;;;;3.88;0.93;;;;;;;19.87;37.28;97936.41;5011975;28;100296;-83
2022/04/07 10:49:20;;;;;;;4.35;1.05;;;;;;;19.88;36.93;97947.88;5010947;28;97797;-85
2022/04/07 10:51:54;;;;;;;2.25;0.90;;;;;;;19.94;37.13;97957.03;5002263;28;96777;-84
2022/04/07 10:54:21;;;;;;;1.52;0.93;;;;;;;19.31;38.11;97942.53;5000498;28;96937;-85
2022/04/07 10:56:59;;;;;;;5.05;1.20;;;;;;;19.16;38.68;97923.75;5000798;28;101252;-84
2022/04/07 10:59:24;;;;;;;3.70;1.00;;;;;;;18.94;38.40;97942.00;5002695;28;100499;-84
2022/04/07 11:02:00;;;;;;;1.60;0.98;;;;;;;18.60;37.84;97934.06;5014060;28;96808;-84
2022/04/07 11:04:25;;;;;;;3.95;1.15;;;;;;;18.66;38.91;97922.78;5024145;27;98820;-85
2022/04/07 11:07:15;;;;;;;1.80;1.00;;;;;;;18.85;39.78;97923.50;5055730;27;99524;-84
2022/04/07 11:09:41;;;;;;;2.03;0.90;;;;;;;19.05;38.47;97906.28;5048926;27;101031;-80
2022/04/07 11:12:16;;;;;;;2.08;0.95;;;;;;;19.11;37.73;97904.78;5039712;27;96618;-80
2022/04/07 11:14:46;;;;;;;3.20;0.98;;;;;;;19.08;37.50;97905.97;5038137;27;97118;-80
2022/04/07 11:17:32;;;;;;;1.83;0.93;;;;;;;19.14;37.92;97901.78;5039837;27;98045;-81
2022/04/07 11:20:24;;;;;;;1.30;0.85;;;;;;;19.02;37.88;97889.81;5042813;27;97874;-82
2022/04/07 11:23:01;;;;;;;2.20;0.70;;;;;;;19.02;37.94;97900.47;5045945;28;96815;-82
2022/04/07 11:25:35;;;;;;;0.90;0.60;;;;;;;18.97;37.14;97896.47;5034406;27;97089;-88
2022/04/07 11:28:10;;;;;;;1.88;0.75;;;;;;;18.93;37.66;97884.50;5035065;27;100442;-82
2022/04/07 11:31:04;;;;;;;0.85;0.52;;;;;;;18.94;37.87;97875.53;5036092;27;97944;-84
2022/04/07 11:33:39;;;;;;;5.32;1.02;;;;;;;18.76;37.72;97856.22;5038855;27;96612;-86